Alcester, SD

8:29 AM CDT on July 31, 2014 (GMT -0500)
Campingfarmer (KIAROCKV2) Elev 1253 ft | 43.19 °N, 96.39 °W | Change Station

Current weather conditions updated 14 minutes ago

Scattered Clouds
Scattered Clouds
60.1 °F
Feels Like 60.1 °F
N
1.6
Wind Variable Wind from North
Gusts 2.2 mph

Today is forecast to be Much Cooler than yesterday.

Today
High -- | Low -- °F
--% Chance of Precip.
Yesterday
High -- | Low -- °F
Precip. -- in
6:16 AM 8:48 PM
Waxing Crescent, 18% visible
Pressure 30.10 in
Visibility 10.0 miles
Clouds Scattered Clouds 12000 ft
Dew Point 60 °F
Humidity 99%
Rainfall 0.00 in
Snow Depth Not available.
UV 1 out of 12
Pollen 6.40 out of 12
Air Quality Not available.
Flu Activity Not available.
METAR KLRJ 311315Z AUTO 00000KT 10SM SCT120 17/14 A3010 RMK AO2

More Conditions Fewer Conditions

Pressure 30.10 in
Visibility 10.0 miles
Clouds Scattered Clouds 12000 ft
Dew Point 60 °F
Humidity 99%
Rainfall 0.00 in
Snow Depth Not available.
UV 1 out of 12
Pollen 6.40 out of 12
Air Quality Not available.
Flu Activity Not available.
METAR KLRJ 311315Z AUTO 00000KT 10SM SCT120 17/14 A3010 RMK AO2

More Conditions Fewer Conditions

10-Day Weather Forecast

Almanac

Astronomy

Jul. 31, 2014 Rise Set
Actual Time 6:16 AM CDT 8:48 PM CDT
Civil Twilight 5:43 AM CDT 9:21 PM CDT
Nautical Twilight 5:03 AM CDT 10:01 PM CDT
Astronomical Twilight 4:17 AM CDT 10:46 PM CDT
Moon 10:53 AM CDT 10:53 PM CDT
Length of Visible Light 15h 37m
Length of Day
14h 32m
Tomorrow will be 2m 14s shorter.
Waxing Crescent, 18% of the Moon is Illuminated
Today
Waxing Crescent
Aug 3
First Quarter
Aug 10
Full
Aug 17
Last Quarter
Aug 25
New

Today's Extremes

State Highs State Lows

Community

WunderPhotos

Upload Photos

1,739,322 photos uploaded!

WunderBlogs® & News

Nearby

Snow Depth

Station Depth Elevation
Blind Park 0 in 6890 ft

Earthquake Activity

City Distance Mag. Time & Date
No recent earthquake activity has been reported nearby.
Minimum magnitude displayed is 2.5.

Coastal Water Temperatures

Place Temperature
No Stations Reporting

Nearby Weather Stations

Station Location Temp. Dew Point Humidity Wind Precip. Elev Updated Type
Campingfarmer, Rock Valley, IA 60.1 °F 60 °F 99% North  at  1.6 mph 0.00 in / hr 1253 ft 8:15 AM CDT Normal
RV south east, Rock Valley, IA 65.7 °F 55 °F 68% NNE  at  1.7 mph - / hr 1309 ft 8:24 AM CDT Normal
Sioux Center, Sioux Center, IA 63.1 °F 58 °F 84% SSE  at  0.0 mph 0.00 in / hr 1411 ft 8:14 AM CDT Normal
Sioux Center IA, Sioux Center, IA 64.9 °F 58 °F 77% SW  at  1.0 mph 0.00 in / hr 1470 ft 8:25 AM CDT Normal

Show More Stations Show Fewer Stations